Ottawa Macdonald-Cartier International Airport

CYOW | YOW

Ottawa , Ontario , Canada

Sunday, January 26th, 2020 | 19:56

Weather

CYOW 270048Z 22011KT 7SM -SN BKN020 OVC025 01/00 A2957 RMK SC6SC2 SLP019

Charts

No Charts Available

Gates

77 Available

Runways

3 Available

Events

No events for this airport


New event